createdAt,value
2018-03-17T00:00:32.130Z,0.57
2018-03-17T00:01:31.840Z,0.58
2018-03-17T00:02:31.817Z,0.61
2018-03-17T00:03:32.326Z,0.61
2018-03-17T00:04:32.301Z,0.65
2018-03-17T00:05:31.738Z,0.49
2018-03-17T00:06:31.977Z,0.52
2018-03-17T00:07:32.221Z,0.49
2018-03-17T00:08:31.934Z,0.53
2018-03-17T00:09:31.907Z,0.53
2018-03-17T00:10:31.618Z,0.6
2018-03-17T00:11:31.593Z,0.58
2018-03-17T00:12:31.830Z,0.51
2018-03-17T00:13:31.804Z,0.52
2018-03-17T00:14:31.780Z,0.58
2018-03-17T00:15:32.026Z,0.53
2018-03-17T00:16:31.997Z,0.58
2018-03-17T00:17:31.982Z,0.51
2018-03-17T00:18:31.681Z,0.53
2018-03-17T00:19:31.921Z,0.57
2018-03-17T00:20:31.910Z,0.39
2018-03-17T00:21:31.613Z,0.48
2018-03-17T00:22:31.854Z,0.49
2018-03-17T00:23:31.560Z,0.49
2018-03-17T00:24:31.798Z,0.49
2018-03-17T00:25:31.770Z,0.52
2018-03-17T00:26:31.756Z,0.51
2018-03-17T00:27:31.730Z,0.51
2018-03-17T00:28:31.703Z,0.49
2018-03-17T00:29:31.419Z,0.52
2018-03-17T00:30:31.689Z,0.51
2018-03-17T00:31:31.364Z,0.51
2018-03-17T00:32:31.333Z,0.46
2018-03-17T00:33:31.045Z,0.43
2018-03-17T00:34:31.290Z,0.42
2018-03-17T00:35:31.261Z,0.39
2018-03-17T00:36:31.240Z,0.49
2018-03-17T00:37:31.480Z,0.46
2018-03-17T00:38:31.455Z,0.42
2018-03-17T00:39:30.894Z,0.41
2018-03-17T00:40:31.401Z,0.46
2018-03-17T00:41:31.112Z,0.38
2018-03-17T00:42:31.084Z,0.38
2018-03-17T00:43:31.055Z,0.41
2018-03-17T00:44:30.772Z,0.38
2018-03-17T00:45:31.011Z,0.36
2018-03-17T00:46:31.249Z,0.39
2018-03-17T00:47:30.975Z,0.38
2018-03-17T00:48:30.938Z,0.36
2018-03-17T00:49:30.917Z,0.36
2018-03-17T00:50:30.618Z,0.39
2018-03-17T00:51:31.123Z,0.41
2018-03-17T00:52:30.852Z,0.31
2018-03-17T00:53:30.544Z,0.33
2018-03-17T00:54:30.785Z,0.33
2018-03-17T00:55:31.027Z,0.36
2018-03-17T00:56:30.731Z,0.34
2018-03-17T00:57:30.766Z,0.36
2018-03-17T00:58:30.691Z,0.3
2018-03-17T00:59:30.927Z,0.34
2018-03-17T01:00:30.636Z,0.36
2018-03-17T01:01:30.620Z,0.31
2018-03-17T01:02:30.852Z,0.31
2018-03-17T01:03:30.833Z,0.36
2018-03-17T01:04:30.533Z,0.28
2018-03-17T01:05:30.783Z,0.36
2018-03-17T01:06:30.488Z,0.34
2018-03-17T01:07:30.735Z,0.38
2018-03-17T01:08:30.432Z,0.34
2018-03-17T01:09:30.410Z,0.27
2018-03-17T01:10:30.390Z,0.34
2018-03-17T01:11:30.097Z,0.33
2018-03-17T01:12:30.602Z,0.27
2018-03-17T01:13:30.574Z,0.31
2018-03-17T01:14:30.022Z,0.3
2018-03-17T01:15:30.523Z,0.33
2018-03-17T01:16:29.966Z,0.38
2018-03-17T01:17:30.215Z,0.24
2018-03-17T01:18:30.446Z,0.24
2018-03-17T01:19:30.430Z,0.3
2018-03-17T01:20:30.148Z,0.28
2018-03-17T01:21:30.125Z,0.25
2018-03-17T01:22:30.082Z,0.23
2018-03-17T01:23:30.071Z,0.31
2018-03-17T01:24:29.768Z,0.27
2018-03-17T01:25:30.009Z,0.27
2018-03-17T01:26:30.247Z,0.3
2018-03-17T01:27:30.224Z,0.27
2018-03-17T01:28:29.932Z,0.31
2018-03-17T01:29:29.904Z,0.33
2018-03-17T01:30:29.885Z,0.3
2018-03-17T01:31:29.591Z,0.28
2018-03-17T01:32:30.095Z,0.34
2018-03-17T01:33:30.073Z,0.25
2018-03-17T01:34:29.515Z,0.31
2018-03-17T01:35:29.760Z,0.31
2018-03-17T01:36:29.466Z,0.31
2018-03-17T01:37:29.705Z,0.24
2018-03-17T01:38:29.686Z,0.31
2018-03-17T01:39:29.396Z,0.31
2018-03-17T01:40:29.633Z,0.36
2018-03-17T01:41:29.343Z,0.27
2018-03-17T01:42:29.584Z,0.31
2018-03-17T01:43:29.554Z,0.33
2018-03-17T01:44:29.270Z,0.3
2018-03-17T01:45:29.244Z,0.31
2018-03-17T01:46:29.216Z,0.39
2018-03-17T01:47:29.720Z,0.34
2018-03-17T01:48:29.702Z,0.33
2018-03-17T01:49:29.350Z,0.36
2018-03-17T01:50:29.649Z,0.33
2018-03-17T01:51:29.350Z,0.33
2018-03-17T01:52:29.333Z,0.31
2018-03-17T01:53:29.571Z,0.28
2018-03-17T01:54:29.277Z,0.27
2018-03-17T01:55:28.987Z,0.25
2018-03-17T01:56:29.492Z,0.31
2018-03-17T01:57:29.469Z,0.24
2018-03-17T01:58:29.180Z,0.36
2018-03-17T01:59:29.165Z,0.31
2018-03-17T02:00:29.127Z,0.33
2018-03-17T02:01:29.104Z,0.25
2018-03-17T02:02:29.339Z,0.33
2018-03-17T02:03:29.056Z,0.23
2018-03-17T02:04:28.762Z,0.3
2018-03-17T02:05:29.270Z,0.31
2018-03-17T02:06:28.713Z,0.27
2018-03-17T02:07:28.953Z,0.27
2018-03-17T02:08:29.200Z,0.24
2018-03-17T02:09:28.641Z,0.31
2018-03-17T02:10:28.878Z,0.3
2018-03-17T02:11:28.861Z,0.28
2018-03-17T02:12:28.828Z,0.28
2018-03-17T02:13:28.802Z,0.25
2018-03-17T02:14:28.515Z,0.18
2018-03-17T02:15:29.020Z,0.31
2018-03-17T02:16:28.993Z,0.34
2018-03-17T02:17:28.704Z,0.27
2018-03-17T02:18:28.412Z,0.28
2018-03-17T02:19:28.390Z,0.31
2018-03-17T02:20:28.905Z,0.27
2018-03-17T02:21:28.603Z,0.3
2018-03-17T02:22:28.845Z,0.27
2018-03-17T02:23:28.560Z,0.23
2018-03-17T02:24:28.263Z,0.16
2018-03-17T02:25:28.499Z,0.2
2018-03-17T02:26:28.745Z,0.18
2018-03-17T02:27:28.719Z,0.13
2018-03-17T02:28:28.431Z,0.13
2018-03-17T02:29:28.415Z,0.15
2018-03-17T02:30:28.650Z,0.13
2018-03-17T02:31:28.364Z,0.1
2018-03-17T02:32:28.606Z,0.13
2018-03-17T02:33:28.049Z,0.05
2018-03-17T02:34:28.020Z,0.1
2018-03-17T02:35:28.258Z,0.03
2018-03-17T02:36:28.500Z,0.02
2018-03-17T02:37:28.210Z,0.15
2018-03-17T02:38:28.186Z,-0.04
2018-03-17T02:39:28.165Z,-0.01
2018-03-17T02:40:27.885Z,0.03
2018-03-17T02:41:28.111Z,-0.04
2018-03-17T02:42:28.346Z,-0.05
2018-03-17T02:43:27.788Z,-0.05
2018-03-17T02:44:28.027Z,-0.04
2018-03-17T02:45:28.300Z,-0.05
2018-03-17T02:46:27.716Z,-0.06
2018-03-17T02:47:27.689Z,-0.05
2018-03-17T02:48:27.945Z,-0.12
2018-03-17T02:49:27.980Z,-0.08
2018-03-17T02:50:27.624Z,-0.09
2018-03-17T02:51:27.860Z,-0.13
2018-03-17T02:52:27.611Z,-0.19
2018-03-17T02:53:27.811Z,-0.09
2018-03-17T02:54:27.533Z,-0.13
2018-03-17T02:55:28.029Z,-0.11
2018-03-17T02:56:27.991Z,-0.19
2018-03-17T02:57:27.973Z,-0.19
2018-03-17T02:58:27.411Z,-0.09
2018-03-17T02:59:27.396Z,-0.12
2018-03-17T03:00:27.372Z,-0.22
2018-03-17T03:01:27.612Z,-0.23
2018-03-17T03:02:27.582Z,-0.16
2018-03-17T03:03:27.556Z,-0.18
2018-03-17T03:04:27.528Z,-0.26
2018-03-17T03:05:27.245Z,-0.26
2018-03-17T03:06:27.497Z,-0.16
2018-03-17T03:07:27.734Z,-0.23
2018-03-17T03:08:27.689Z,-0.18
2018-03-17T03:09:27.668Z,-0.19
2018-03-17T03:10:27.372Z,-0.24
2018-03-17T03:11:27.351Z,-0.23
2018-03-17T03:12:27.589Z,-0.22
2018-03-17T03:13:27.394Z,-0.27
2018-03-17T03:14:27.008Z,-0.19
2018-03-17T03:15:26.980Z,-0.19
2018-03-17T03:16:27.493Z,-0.24
2018-03-17T03:17:27.462Z,-0.24
2018-03-17T03:18:27.171Z,-0.3
2018-03-17T03:19:26.877Z,-0.33
2018-03-17T03:20:27.384Z,-0.24
2018-03-17T03:21:26.829Z,-0.3
2018-03-17T03:22:27.072Z,-0.31
2018-03-17T03:23:26.774Z,-0.36
2018-03-17T03:24:27.015Z,-0.31
2018-03-17T03:25:27.256Z,-0.31
2018-03-17T03:26:27.231Z,-0.27
2018-03-17T03:27:27.210Z,-0.31
2018-03-17T03:28:26.653Z,-0.29
2018-03-17T03:29:27.153Z,-0.27
2018-03-17T03:30:26.871Z,-0.33
2018-03-17T03:31:27.117Z,-0.3
2018-03-17T03:32:27.092Z,-0.3
2018-03-17T03:33:26.785Z,-0.26
2018-03-17T03:34:26.762Z,-0.36
2018-03-17T03:35:26.734Z,-0.29
2018-03-17T03:36:26.447Z,-0.42
2018-03-17T03:37:26.951Z,-0.37
2018-03-17T03:38:26.664Z,-0.3
2018-03-17T03:39:26.902Z,-0.33
2018-03-17T03:40:26.609Z,-0.36
2018-03-17T03:41:26.582Z,-0.41
2018-03-17T03:42:26.559Z,-0.31
2018-03-17T03:43:26.796Z,-0.39
2018-03-17T03:44:26.507Z,-0.31
2018-03-17T03:45:26.485Z,-0.41
2018-03-17T03:46:26.188Z,-0.37
2018-03-17T03:47:26.701Z,-0.34
2018-03-17T03:48:26.400Z,-0.37
2018-03-17T03:49:26.848Z,-0.39
2018-03-17T03:50:26.097Z,-0.39
2018-03-17T03:51:26.332Z,-0.5
2018-03-17T03:52:26.044Z,-0.47
2018-03-17T03:53:26.575Z,-0.47
2018-03-17T03:54:25.983Z,-0.54
2018-03-17T03:55:26.230Z,-0.41
2018-03-17T03:56:25.938Z,-0.55
2018-03-17T03:57:26.443Z,-0.57
2018-03-17T03:58:26.150Z,-0.57
2018-03-17T03:59:26.391Z,-0.63
2018-03-17T04:00:25.836Z,-0.52
2018-03-17T04:01:26.339Z,-0.57
2018-03-17T04:02:26.052Z,-0.65
2018-03-17T04:03:26.342Z,-0.55
2018-03-17T04:04:25.993Z,-0.6
2018-03-17T04:05:25.970Z,-0.65
2018-03-17T04:06:25.680Z,-0.65
2018-03-17T04:07:26.180Z,-0.63
2018-03-17T04:08:26.157Z,-0.7
2018-03-17T04:09:25.871Z,-0.65
2018-03-17T04:10:25.842Z,-0.65
2018-03-17T04:11:26.081Z,-0.65
2018-03-17T04:12:25.527Z,-0.65
2018-03-17T04:13:25.500Z,-0.68
2018-03-17T04:14:25.739Z,-0.69
2018-03-17T04:15:25.710Z,-0.68
2018-03-17T04:16:25.684Z,-0.73
2018-03-17T04:17:25.930Z,-0.75
2018-03-17T04:18:25.901Z,-0.72
2018-03-17T04:19:25.619Z,-0.68
2018-03-17T04:20:25.586Z,-0.69
2018-03-17T04:21:25.556Z,-0.78
2018-03-17T04:22:25.798Z,-0.78
2018-03-17T04:23:25.507Z,-0.78
2018-03-17T04:24:25.479Z,-0.83
2018-03-17T04:25:25.716Z,-0.78
2018-03-17T04:26:25.697Z,-0.77
2018-03-17T04:27:25.409Z,-0.86
2018-03-17T04:28:25.694Z,-0.77
2018-03-17T04:29:25.616Z,-0.86
2018-03-17T04:30:25.326Z,-0.8
2018-03-17T04:31:25.566Z,-0.8
2018-03-17T04:32:25.275Z,-0.83
2018-03-17T04:33:25.509Z,-0.77
2018-03-17T04:34:25.225Z,-0.8
2018-03-17T04:35:25.198Z,-0.78
2018-03-17T04:36:25.175Z,-0.81
2018-03-17T04:37:25.140Z,-0.8
2018-03-17T04:38:25.119Z,-0.83
2018-03-17T04:39:25.091Z,-0.91
2018-03-17T04:40:25.066Z,-0.92
2018-03-17T04:41:25.042Z,-0.83
2018-03-17T04:42:25.014Z,-0.89
2018-03-17T04:43:25.261Z,-0.89
2018-03-17T04:44:24.985Z,-0.91
2018-03-17T04:45:24.673Z,-0.87
2018-03-17T04:46:24.912Z,-0.84
2018-03-17T04:47:24.886Z,-0.87
2018-03-17T04:48:25.129Z,-0.92
2018-03-17T04:49:25.104Z,-0.92
2018-03-17T04:50:24.805Z,-0.83
2018-03-17T04:51:25.101Z,-0.89
2018-03-17T04:52:25.074Z,-0.91
2018-03-17T04:53:24.997Z,-0.95
2018-03-17T04:54:24.703Z,-0.95
2018-03-17T04:55:24.682Z,-0.95
2018-03-17T04:56:24.919Z,-0.91
2018-03-17T04:57:24.629Z,-0.86
2018-03-17T04:58:24.863Z,-0.94
2018-03-17T04:59:24.623Z,-1
2018-03-17T05:00:24.554Z,-0.91
2018-03-17T05:01:24.257Z,-0.91
2018-03-17T05:02:24.230Z,-0.92
2018-03-17T05:03:24.734Z,-0.91
2018-03-17T05:04:24.447Z,-0.99
2018-03-17T05:05:24.413Z,-1
2018-03-17T05:06:24.403Z,-0.94
2018-03-17T05:07:24.372Z,-0.92
2018-03-17T05:08:24.347Z,-0.95
2018-03-17T05:09:24.324Z,-0.99
2018-03-17T05:10:24.563Z,-0.95
2018-03-17T05:11:24.003Z,-0.94
2018-03-17T05:12:24.499Z,-1.02
2018-03-17T05:13:23.948Z,-1.13
2018-03-17T05:14:24.449Z,-1.12
2018-03-17T05:15:23.893Z,-1.12
2018-03-17T05:16:24.138Z,-1.09
2018-03-17T05:17:24.105Z,-1.12
2018-03-17T05:18:24.076Z,-1
2018-03-17T05:19:24.058Z,-1.03
2018-03-17T05:20:24.299Z,-1.05
2018-03-17T05:21:24.266Z,-1.05
2018-03-17T05:22:23.974Z,-1.07
2018-03-17T05:23:23.944Z,-1.13
2018-03-17T05:24:23.657Z,-1.1
2018-03-17T05:25:23.903Z,-1.1
2018-03-17T05:26:23.871Z,-1.1
2018-03-17T05:27:23.846Z,-1.07
2018-03-17T05:28:24.084Z,-1.1
2018-03-17T05:29:23.824Z,-1.23
2018-03-17T05:30:23.504Z,-1.23
2018-03-17T05:31:23.471Z,-1.09
2018-03-17T05:32:23.982Z,-1.09
2018-03-17T05:33:24.041Z,-1.15
2018-03-17T05:34:23.927Z,-1.13
2018-03-17T05:35:23.906Z,-1.1
2018-03-17T05:36:23.609Z,-1.07
2018-03-17T05:37:23.588Z,-1.06
2018-03-17T05:38:23.558Z,-1.18
2018-03-17T05:39:23.832Z,-1.12
2018-03-17T05:40:23.503Z,-1.23
2018-03-17T05:41:23.218Z,-1.2
2018-03-17T05:42:23.464Z,-1.24
2018-03-17T05:43:23.766Z,-1.17
2018-03-17T05:44:23.400Z,-1.21
2018-03-17T05:45:23.375Z,-1.17
2018-03-17T05:46:23.357Z,-1.21
2018-03-17T05:47:23.603Z,-1.17
2018-03-17T05:48:23.300Z,-1.17
2018-03-17T05:49:23.748Z,-1.27
2018-03-17T05:50:23.335Z,-1.18
2018-03-17T05:51:22.954Z,-1.24
2018-03-17T05:52:23.191Z,-1.23
2018-03-17T05:53:23.168Z,-1.2
2018-03-17T05:54:23.414Z,-1.25
2018-03-17T05:55:23.377Z,-1.23
2018-03-17T05:56:23.089Z,-1.25
2018-03-17T05:57:23.059Z,-1.24
2018-03-17T05:58:23.079Z,-1.17
2018-03-17T05:59:23.275Z,-1.25
2018-03-17T06:00:23.254Z,-1.23
2018-03-17T06:01:22.692Z,-1.27
2018-03-17T06:02:23.196Z,-1.24
2018-03-17T06:03:22.903Z,-1.24
2018-03-17T06:04:23.232Z,-1.27
2018-03-17T06:05:23.184Z,-1.2
2018-03-17T06:06:23.089Z,-1.18
2018-03-17T06:07:23.075Z,-1.24
2018-03-17T06:08:22.777Z,-1.24
2018-03-17T06:09:22.764Z,-1.23
2018-03-17T06:10:22.780Z,-1.24
2018-03-17T06:11:22.697Z,-1.23
2018-03-17T06:12:22.405Z,-1.15
2018-03-17T06:13:22.917Z,-1.23
2018-03-17T06:14:22.658Z,-1.2
2018-03-17T06:15:22.328Z,-1.24
2018-03-17T06:16:22.567Z,-1.18
2018-03-17T06:17:22.559Z,-1.2
2018-03-17T06:18:22.776Z,-1.31
2018-03-17T06:19:22.488Z,-1.23
2018-03-17T06:20:22.249Z,-1.25
2018-03-17T06:21:22.711Z,-1.25
2018-03-17T06:22:22.688Z,-1.2
2018-03-17T06:23:22.382Z,-1.23
2018-03-17T06:24:22.093Z,-1.17
2018-03-17T06:25:22.426Z,-1.24
2018-03-17T06:26:22.303Z,-1.25
2018-03-17T06:27:22.277Z,-1.25
2018-03-17T06:28:22.520Z,-1.21
2018-03-17T06:29:22.491Z,-1.23
2018-03-17T06:30:22.462Z,-1.2
2018-03-17T06:31:21.909Z,-1.2
2018-03-17T06:32:21.883Z,-1.17
2018-03-17T06:33:21.853Z,-1.23
2018-03-17T06:34:22.111Z,-1.23
2018-03-17T06:35:22.070Z,-1.24
2018-03-17T06:36:22.046Z,-1.17
2018-03-17T06:37:22.017Z,-1.21
2018-03-17T06:38:21.996Z,-1.1
2018-03-17T06:39:22.241Z,-1.21
2018-03-17T06:40:21.673Z,-1.2
2018-03-17T06:41:21.647Z,-1.2
2018-03-17T06:42:21.619Z,-1.23
2018-03-17T06:43:21.872Z,-1.2
2018-03-17T06:44:21.565Z,-1.18
2018-03-17T06:45:21.812Z,-1.24
2018-03-17T06:46:21.514Z,-1.21
2018-03-17T06:47:22.020Z,-1.23
2018-03-17T06:48:21.726Z,-1.23
2018-03-17T06:49:21.700Z,-1.18
2018-03-17T06:50:21.953Z,-1.2
2018-03-17T06:51:21.912Z,-1.28
2018-03-17T06:52:21.623Z,-1.27
2018-03-17T06:53:21.866Z,-1.2
2018-03-17T06:54:21.573Z,-1.25
2018-03-17T06:55:21.548Z,-1.35
2018-03-17T06:56:21.512Z,-1.3
2018-03-17T06:57:21.494Z,-1.24
2018-03-17T06:58:21.202Z,-1.23
2018-03-17T06:59:21.704Z,-1.31
2018-03-17T07:00:21.150Z,-1.23
2018-03-17T07:01:21.654Z,-1.24
2018-03-17T07:02:21.366Z,-1.27
2018-03-17T07:03:21.355Z,-1.3
2018-03-17T07:04:21.055Z,-1.2
2018-03-17T07:05:21.022Z,-1.18
2018-03-17T07:06:21.525Z,-1.21
2018-03-17T07:07:21.498Z,-1.2
2018-03-17T07:08:21.205Z,-1.23
2018-03-17T07:09:21.179Z,-1.23
2018-03-17T07:10:21.423Z,-1.25
2018-03-17T07:11:21.180Z,-1.3
2018-03-17T07:12:21.521Z,-1.27
2018-03-17T07:13:21.345Z,-1.28
2018-03-17T07:14:21.063Z,-1.23
2018-03-17T07:15:21.292Z,-1.17
2018-03-17T07:16:20.995Z,-1.27
2018-03-17T07:17:20.967Z,-1.31
2018-03-17T07:18:20.946Z,-1.31
2018-03-17T07:19:21.193Z,-1.35
2018-03-17T07:20:20.902Z,-1.3
2018-03-17T07:21:20.603Z,-1.3
2018-03-17T07:22:20.841Z,-1.28
2018-03-17T07:23:20.819Z,-1.3
2018-03-17T07:24:20.525Z,-1.23
2018-03-17T07:25:20.956Z,-1.35
2018-03-17T07:26:20.734Z,-1.28
2018-03-17T07:27:20.976Z,-1.28
2018-03-17T07:28:20.690Z,-1.31
2018-03-17T07:29:20.656Z,-1.3
2018-03-17T07:30:20.633Z,-1.27
2018-03-17T07:31:20.606Z,-1.31
2018-03-17T07:32:20.847Z,-1.39
2018-03-17T07:33:20.559Z,-1.38
2018-03-17T07:34:20.531Z,-1.35
2018-03-17T07:35:20.767Z,-1.36
2018-03-17T07:36:20.751Z,-1.35
2018-03-17T07:37:20.449Z,-1.33
2018-03-17T07:38:20.434Z,-1.39
2018-03-17T07:39:20.402Z,-1.46
2018-03-17T07:40:20.378Z,-1.39
2018-03-17T07:41:20.356Z,-1.38
2018-03-17T07:42:20.322Z,-1.35
2018-03-17T07:43:20.561Z,-1.35
2018-03-17T07:44:20.534Z,-1.39
2018-03-17T07:45:20.273Z,-1.41
2018-03-17T07:46:20.217Z,-1.31
2018-03-17T07:47:20.457Z,-1.48
2018-03-17T07:48:20.169Z,-1.43
2018-03-17T07:49:20.342Z,-1.36
2018-03-17T07:50:20.376Z,-1.33
2018-03-17T07:51:20.165Z,-1.38
2018-03-17T07:52:19.789Z,-1.36
2018-03-17T07:53:20.298Z,-1.31
2018-03-17T07:54:20.267Z,-1.38
2018-03-17T07:55:19.976Z,-1.36
2018-03-17T07:56:19.952Z,-1.39
2018-03-17T07:57:20.092Z,-1.31
2018-03-17T07:58:19.904Z,-1.35
2018-03-17T07:59:19.880Z,-1.33
2018-03-17T08:00:20.118Z,-1.27
2018-03-17T08:01:19.824Z,-1.23
2018-03-17T08:02:20.075Z,-1.24
2018-03-17T08:03:19.503Z,-1.24
2018-03-17T08:04:19.747Z,-1.31
2018-03-17T08:05:19.733Z,-1.23
2018-03-17T08:06:19.428Z,-1.24
2018-03-17T08:07:19.667Z,-1.21
2018-03-17T08:08:19.911Z,-1.3
2018-03-17T08:09:19.354Z,-1.3
2018-03-17T08:10:19.588Z,-1.24
2018-03-17T08:11:19.568Z,-1.24
2018-03-17T08:12:19.537Z,-1.33
2018-03-17T08:13:19.781Z,-1.25
2018-03-17T08:14:19.484Z,-1.23
2018-03-17T08:15:19.455Z,-1.25
2018-03-17T08:16:19.441Z,-1.1
2018-03-17T08:17:19.403Z,-1.18
2018-03-17T08:18:19.122Z,-1.15
2018-03-17T08:19:19.665Z,-1.12
2018-03-17T08:20:19.328Z,-1.18
2018-03-17T08:21:19.299Z,-1.12
2018-03-17T08:22:19.014Z,-1.13
2018-03-17T08:23:19.520Z,-1.2
2018-03-17T08:24:18.960Z,-1.13
2018-03-17T08:25:19.273Z,-1.1
2018-03-17T08:26:18.921Z,-1.09
2018-03-17T08:27:19.415Z,-1.1
2018-03-17T08:28:19.386Z,-1.1
2018-03-17T08:29:19.094Z,-1.12
2018-03-17T08:30:19.069Z,-1.03
2018-03-17T08:31:19.371Z,-1.02
2018-03-17T08:32:19.282Z,-1.05
2018-03-17T08:33:19.287Z,-1.07
2018-03-17T08:34:19.261Z,-1.05
2018-03-17T08:35:18.939Z,-0.95
2018-03-17T08:36:18.917Z,-1
2018-03-17T08:37:18.624Z,-1.05
2018-03-17T08:38:19.130Z,-1.05
2018-03-17T08:39:18.838Z,-1.02
2018-03-17T08:40:18.812Z,-1.05
2018-03-17T08:41:18.783Z,-1.03
2018-03-17T08:42:18.786Z,-1.12
2018-03-17T08:43:19.023Z,-0.95
2018-03-17T08:44:18.716Z,-1.1
2018-03-17T08:45:18.955Z,-1.06
2018-03-17T08:46:18.660Z,-0.95
2018-03-17T08:47:18.910Z,-1
2018-03-17T08:48:18.878Z,-0.97
2018-03-17T08:49:18.846Z,-1.02
2018-03-17T08:50:18.830Z,-0.95
2018-03-17T08:51:18.794Z,-1.06
2018-03-17T08:52:18.513Z,-0.91
2018-03-17T08:53:18.744Z,-0.95
2018-03-17T08:54:18.720Z,-1.07
2018-03-17T08:55:18.159Z,-0.99
2018-03-17T08:56:18.683Z,-0.87
2018-03-17T08:57:18.377Z,-1.02
2018-03-17T08:58:18.359Z,-0.97
2018-03-17T08:59:18.333Z,-1
2018-03-17T09:00:18.298Z,-0.99
2018-03-17T09:01:18.543Z,-0.99
2018-03-17T09:02:18.309Z,-0.97
2018-03-17T09:03:18.225Z,-0.89
2018-03-17T09:04:17.937Z,-1.03
2018-03-17T09:05:18.175Z,-0.99
2018-03-17T09:06:18.412Z,-0.89
2018-03-17T09:07:17.856Z,-0.94
2018-03-17T09:08:18.358Z,-0.95
2018-03-17T09:09:18.093Z,-0.97
2018-03-17T09:10:18.045Z,-0.97
2018-03-17T09:11:18.021Z,-1.03
2018-03-17T09:12:17.736Z,-0.95
2018-03-17T09:13:17.976Z,-0.91
2018-03-17T09:14:17.941Z,-1.06
2018-03-17T09:15:17.658Z,-0.99
2018-03-17T09:16:17.629Z,-0.95
2018-03-17T09:17:18.135Z,-0.87
2018-03-17T09:18:17.839Z,-0.77
2018-03-17T09:19:17.826Z,-0.81
2018-03-17T09:20:18.057Z,-0.81
2018-03-17T09:21:17.773Z,-0.75
2018-03-17T09:22:17.747Z,-0.68
2018-03-17T09:23:17.983Z,-0.66
2018-03-17T09:24:18.145Z,-0.57
2018-03-17T09:25:17.937Z,-0.63
2018-03-17T09:26:17.907Z,-0.68
2018-03-17T09:27:17.891Z,-0.57
2018-03-17T09:28:17.321Z,-0.59
2018-03-17T09:29:17.566Z,-0.59
2018-03-17T09:30:17.541Z,-0.59
2018-03-17T09:31:17.783Z,-0.52
2018-03-17T09:32:17.498Z,-0.6
2018-03-17T09:33:17.257Z,-0.6
2018-03-17T09:34:17.696Z,-0.63
2018-03-17T09:35:17.414Z,-0.62
2018-03-17T09:36:17.647Z,-0.62
2018-03-17T09:37:17.356Z,-0.54
2018-03-17T09:38:17.341Z,-0.57
2018-03-17T09:39:17.314Z,-0.59
2018-03-17T09:40:17.561Z,-0.51
2018-03-17T09:41:17.525Z,-0.51
2018-03-17T09:42:17.298Z,-0.59
2018-03-17T09:43:17.475Z,-0.47
2018-03-17T09:44:17.452Z,-0.51
2018-03-17T09:45:17.427Z,-0.57
2018-03-17T09:46:17.135Z,-0.55
2018-03-17T09:47:17.116Z,-0.63
2018-03-17T09:48:16.820Z,-0.66
2018-03-17T09:49:17.927Z,-0.57
2018-03-17T09:50:16.764Z,-0.65
2018-03-17T09:51:17.298Z,-0.63
2018-03-17T09:52:17.063Z,-0.65
2018-03-17T09:53:17.230Z,-0.65
2018-03-17T09:54:16.978Z,-0.59
2018-03-17T09:55:16.909Z,-0.55
2018-03-17T09:56:16.891Z,-0.57
2018-03-17T09:57:17.155Z,-0.55
2018-03-17T09:58:16.860Z,-0.47
2018-03-17T09:59:17.082Z,-0.45
2018-03-17T10:00:17.117Z,-0.44
2018-03-17T10:01:17.022Z,-0.42
2018-03-17T10:02:16.736Z,-0.48
2018-03-17T10:03:16.706Z,-0.45
2018-03-17T10:04:16.701Z,-0.45
2018-03-17T10:05:16.659Z,-0.51
2018-03-17T10:06:16.632Z,-0.48
2018-03-17T10:07:16.607Z,-0.48
2018-03-17T10:08:16.847Z,-0.47
2018-03-17T10:09:16.821Z,-0.37
2018-03-17T10:10:16.267Z,-0.37
2018-03-17T10:11:16.241Z,-0.34
2018-03-17T10:12:16.485Z,-0.47
2018-03-17T10:13:16.200Z,-0.52
2018-03-17T10:14:16.696Z,-0.6
2018-03-17T10:15:16.142Z,-0.55
2018-03-17T10:16:16.116Z,-0.55
2018-03-17T10:17:16.627Z,-0.57
2018-03-17T10:18:16.599Z,-0.59
2018-03-17T10:19:16.306Z,-0.51
2018-03-17T10:20:16.280Z,-0.59
2018-03-17T10:21:15.994Z,-0.55
2018-03-17T10:22:15.971Z,-0.57
2018-03-17T10:23:16.206Z,-0.39
2018-03-17T10:24:15.957Z,-0.48
2018-03-17T10:25:16.433Z,-0.52
2018-03-17T10:26:16.140Z,-0.54
2018-03-17T10:27:16.120Z,-0.51
2018-03-17T10:28:16.084Z,-0.54
2018-03-17T10:29:16.322Z,-0.55
2018-03-17T10:30:16.039Z,-0.55
2018-03-17T10:31:16.040Z,-0.44
2018-03-17T10:32:16.258Z,-0.27
2018-03-17T10:33:15.708Z,-0.24
2018-03-17T10:34:16.286Z,-0.23
2018-03-17T10:35:15.704Z,-0.19
2018-03-17T10:36:15.892Z,-0.24
2018-03-17T10:37:16.124Z,-0.29
2018-03-17T10:38:15.839Z,-0.27
2018-03-17T10:39:15.551Z,-0.42
2018-03-17T10:40:15.523Z,-0.37
2018-03-17T10:41:16.039Z,-0.37
2018-03-17T10:42:16.059Z,-0.31
2018-03-17T10:43:15.721Z,-0.34
2018-03-17T10:44:15.963Z,-0.44
2018-03-17T10:45:15.398Z,-0.37
2018-03-17T10:46:15.643Z,-0.34
2018-03-17T10:47:15.621Z,-0.45
2018-03-17T10:48:15.327Z,-0.3
2018-03-17T10:49:15.566Z,-0.36
2018-03-17T10:50:15.540Z,-0.29
2018-03-17T10:51:15.784Z,-0.36
2018-03-17T10:52:15.490Z,-0.27
2018-03-17T10:53:15.199Z,-0.27
2018-03-17T10:54:15.454Z,-0.41
2018-03-17T10:55:15.419Z,-0.41
2018-03-17T10:56:15.398Z,-0.44
2018-03-17T10:57:15.644Z,-0.45
2018-03-17T10:58:15.618Z,-0.52
2018-03-17T10:59:15.322Z,-0.54
2018-03-17T11:00:15.358Z,-0.48
2018-03-17T11:01:15.265Z,-0.45
2018-03-17T11:02:15.511Z,-0.39
2018-03-17T11:03:15.490Z,-0.31
2018-03-17T11:04:15.483Z,-0.33
2018-03-17T11:05:15.182Z,-0.37
2018-03-17T11:06:15.519Z,-0.33
2018-03-17T11:07:14.853Z,-0.39
2018-03-17T11:08:15.357Z,-0.44
2018-03-17T11:09:15.077Z,-0.36
2018-03-17T11:10:14.780Z,-0.29
2018-03-17T11:11:15.341Z,-0.45
2018-03-17T11:12:15.264Z,-0.37
2018-03-17T11:13:14.710Z,-0.39
2018-03-17T11:14:14.956Z,-0.24
2018-03-17T11:15:15.190Z,-0.27
2018-03-17T11:16:15.163Z,-0.24
2018-03-17T11:17:15.145Z,-0.29
2018-03-17T11:18:14.587Z,-0.26
2018-03-17T11:19:15.090Z,-0.27
2018-03-17T11:20:15.068Z,-0.24
2018-03-17T11:21:14.515Z,-0.18
2018-03-17T11:22:14.751Z,-0.18
2018-03-17T11:23:14.722Z,-0.16
2018-03-17T11:24:14.705Z,-0.22
2018-03-17T11:25:14.944Z,-0.15
2018-03-17T11:26:14.914Z,-0.26
2018-03-17T11:27:14.362Z,-0.26
2018-03-17T11:28:14.598Z,-0.18
2018-03-17T11:29:14.575Z,-0.19
2018-03-17T11:30:14.815Z,-0.29
2018-03-17T11:31:14.680Z,-0.29
2018-03-17T11:32:14.237Z,-0.41
2018-03-17T11:33:14.744Z,-0.33
2018-03-17T11:34:14.724Z,-0.37
2018-03-17T11:35:14.486Z,-0.47
2018-03-17T11:36:14.405Z,-0.54
2018-03-17T11:37:14.386Z,-0.63
2018-03-17T11:38:14.355Z,-0.57
2018-03-17T11:39:14.332Z,-0.59
2018-03-17T11:40:14.326Z,-0.6
2018-03-17T11:41:14.579Z,-0.62
2018-03-17T11:42:14.584Z,-0.55
2018-03-17T11:43:14.511Z,-0.44
2018-03-17T11:44:14.472Z,-0.45
2018-03-17T11:45:14.186Z,-0.45
2018-03-17T11:46:14.420Z,-0.41
2018-03-17T11:47:13.867Z,-0.36
2018-03-17T11:48:13.843Z,-0.33
2018-03-17T11:49:14.087Z,-0.27
2018-03-17T11:50:14.522Z,-0.36
2018-03-17T11:51:14.033Z,-0.3
2018-03-17T11:52:13.740Z,-0.18
2018-03-17T11:53:14.254Z,-0.18
2018-03-17T11:54:13.688Z,-0.11
2018-03-17T11:55:13.931Z,-0.11
2018-03-17T11:56:13.917Z,-0.04
2018-03-17T11:57:13.880Z,-0.08
2018-03-17T11:58:13.865Z,-0.11
2018-03-17T11:59:14.098Z,-0.19
2018-03-17T12:00:13.815Z,-0.11
2018-03-17T12:01:13.516Z,-0.3
2018-03-17T12:02:13.763Z,-0.16
2018-03-17T12:03:13.737Z,-0.33
2018-03-17T12:04:13.984Z,-0.24
2018-03-17T12:05:13.420Z,-0.26
2018-03-17T12:06:13.659Z,-0.16
2018-03-17T12:07:13.636Z,-0.22
2018-03-17T12:08:13.349Z,-0.19
2018-03-17T12:09:13.858Z,-0.3
2018-03-17T12:10:13.603Z,-0.26
2018-03-17T12:11:13.543Z,-0.26
2018-03-17T12:12:13.252Z,-0.11
2018-03-17T12:13:13.227Z,-0.15
2018-03-17T12:14:13.734Z,-0.18
2018-03-17T12:15:13.439Z,-0.19
2018-03-17T12:16:13.412Z,-0.19
2018-03-17T12:17:13.390Z,-0.27
2018-03-17T12:18:13.370Z,-0.18
2018-03-17T12:19:13.355Z,-0.16
2018-03-17T12:20:13.055Z,-0.3
2018-03-17T12:21:13.297Z,-0.13
2018-03-17T12:22:13.265Z,-0.13
2018-03-17T12:23:12.975Z,-0.11
2018-03-17T12:24:13.552Z,-0.15
2018-03-17T12:25:13.197Z,-0.09
2018-03-17T12:26:12.903Z,-0.13
2018-03-17T12:27:13.414Z,-0.15
2018-03-17T12:28:13.122Z,-0.22
2018-03-17T12:29:13.358Z,-0.24
2018-03-17T12:30:13.072Z,-0.23
2018-03-17T12:31:13.046Z,-0.18
2018-03-17T12:32:12.755Z,-0.22
2018-03-17T12:33:12.739Z,-0.23
2018-03-17T12:34:13.236Z,-0.18
2018-03-17T12:35:13.218Z,-0.16
2018-03-17T12:36:12.930Z,-0.16
2018-03-17T12:37:13.214Z,-0.23
2018-03-17T12:38:13.144Z,-0.31
2018-03-17T12:39:12.584Z,-0.15
2018-03-17T12:40:12.562Z,-0.16
2018-03-17T12:41:12.533Z,-0.09
2018-03-17T12:42:12.774Z,-0.05
2018-03-17T12:43:13.024Z,0.1
2018-03-17T12:44:12.735Z,0.12
2018-03-17T12:45:12.970Z,0.03
2018-03-17T12:46:12.683Z,0.13
2018-03-17T12:47:12.661Z,0.09
2018-03-17T12:48:12.636Z,0.2
2018-03-17T12:49:12.875Z,0.18
2018-03-17T12:50:12.584Z,0.09
2018-03-17T12:51:12.564Z,0.03
2018-03-17T12:52:12.798Z,0.03
2018-03-17T12:53:12.504Z,-0.01
2018-03-17T12:54:12.224Z,0.03
2018-03-17T12:55:12.194Z,0.03
2018-03-17T12:56:12.437Z,0.07
2018-03-17T12:57:12.155Z,0.13
2018-03-17T12:58:12.391Z,0.05
2018-03-17T12:59:12.367Z,0.05
2018-03-17T13:00:12.338Z,-0.05
2018-03-17T13:01:12.585Z,-0.18